createdAt,value
2023-04-17T00:01:31.716Z,98981.50
2023-04-17T00:03:58.511Z,98979.56
2023-04-17T00:06:27.250Z,98975.41
2023-04-17T00:08:54.131Z,98970.00
2023-04-17T00:11:21.358Z,98970.06
2023-04-17T00:13:48.135Z,98972.81
2023-04-17T00:16:14.913Z,98969.13
2023-04-17T00:18:41.634Z,98961.25
2023-04-17T00:21:08.355Z,98966.53
2023-04-17T00:23:35.132Z,98957.13
2023-04-17T00:26:01.877Z,98958.88
2023-04-17T00:28:28.617Z,98955.38
2023-04-17T00:30:55.414Z,98955.28
2023-04-17T00:33:22.118Z,98946.28
2023-04-17T00:35:48.806Z,98947.19
2023-04-17T00:38:15.791Z,98949.91
2023-04-17T00:40:42.751Z,98950.88
2023-04-17T00:43:09.619Z,98943.84
2023-04-17T00:45:36.449Z,98947.56
2023-04-17T00:48:04.952Z,98940.41
2023-04-17T00:50:32.088Z,98936.00
2023-04-17T00:53:01.190Z,98939.63
2023-04-17T00:55:28.924Z,98938.81
2023-04-17T00:57:56.781Z,98939.00
2023-04-17T01:00:24.701Z,98947.09
2023-04-17T01:02:51.769Z,98945.31
2023-04-17T01:05:18.903Z,98946.13
2023-04-17T01:07:45.967Z,98944.31
2023-04-17T01:10:12.811Z,98947.84
2023-04-17T01:12:40.473Z,98942.41
2023-04-17T01:15:07.551Z,98945.91
2023-04-17T01:17:34.502Z,98944.16
2023-04-17T01:20:01.407Z,98939.63
2023-04-17T01:22:28.474Z,98944.91
2023-04-17T01:24:58.071Z,98933.41
2023-04-17T01:27:28.292Z,98938.78
2023-04-17T01:29:55.282Z,98934.44
2023-04-17T01:32:22.019Z,98942.41
2023-04-17T01:34:49.705Z,98942.38
2023-04-17T01:37:16.422Z,98939.66
2023-04-17T01:39:43.102Z,98944.00
2023-04-17T01:42:09.816Z,98942.22
2023-04-17T01:44:37.610Z,98939.59
2023-04-17T01:47:04.500Z,98951.09
2023-04-17T01:49:31.268Z,98946.59
2023-04-17T01:51:58.046Z,98941.31
2023-04-17T01:54:25.106Z,98941.38
2023-04-17T01:56:51.899Z,98938.66
2023-04-17T01:59:19.050Z,98940.47
2023-04-17T02:01:45.823Z,98940.34
2023-04-17T02:04:12.705Z,98938.63
2023-04-17T02:06:39.399Z,98943.03
2023-04-17T02:09:06.178Z,98937.69
2023-04-17T02:11:33.069Z,98937.59
2023-04-17T02:13:59.974Z,98937.53
2023-04-17T02:16:28.706Z,98932.97
2023-04-17T02:18:55.888Z,98931.28
2023-04-17T02:21:23.091Z,98929.50
2023-04-17T02:23:49.872Z,98932.97
2023-04-17T02:26:16.618Z,98939.09
2023-04-17T02:28:45.111Z,98932.22
2023-04-17T02:31:12.784Z,98933.91
2023-04-17T02:33:39.780Z,98928.41
2023-04-17T02:36:07.614Z,98919.47
2023-04-17T02:38:39.178Z,98928.38
2023-04-17T02:41:06.423Z,98934.66
2023-04-17T02:43:34.076Z,98925.00
2023-04-17T02:46:01.433Z,98927.59
2023-04-17T02:48:28.566Z,98925.91
2023-04-17T02:50:55.562Z,98925.06
2023-04-17T02:53:22.566Z,98924.19
2023-04-17T02:55:50.214Z,98930.47
2023-04-17T02:58:20.086Z,98928.47
2023-04-17T03:00:46.834Z,98927.59
2023-04-17T03:03:16.767Z,98923.19
2023-04-17T03:05:43.570Z,98926.63
2023-04-17T03:08:10.632Z,98924.84
2023-04-17T03:10:44.892Z,98924.78
2023-04-17T03:13:11.670Z,98927.28
2023-04-17T03:15:38.363Z,98927.25
2023-04-17T03:18:05.171Z,98921.88
2023-04-17T03:20:32.259Z,98925.47
2023-04-17T03:22:59.091Z,98926.31
2023-04-17T03:25:25.962Z,98928.09
2023-04-17T03:27:53.979Z,98930.63
2023-04-17T03:30:25.429Z,98926.41
2023-04-17T03:32:54.311Z,98928.38
2023-04-17T03:35:21.225Z,98935.47
2023-04-17T03:37:48.010Z,98922.84
2023-04-17T03:40:15.020Z,98926.69
2023-04-17T03:42:44.017Z,98928.25
2023-04-17T03:45:10.926Z,98926.53
2023-04-17T03:47:38.521Z,98928.41
2023-04-17T03:50:06.566Z,98925.97
2023-04-17T03:52:38.325Z,98933.09
2023-04-17T03:55:06.283Z,98930.25
2023-04-17T03:57:33.021Z,98928.41
2023-04-17T03:59:59.940Z,98939.81
2023-04-17T04:02:34.473Z,98939.88
2023-04-17T04:05:01.448Z,98936.38
2023-04-17T04:07:28.520Z,98933.59
2023-04-17T04:09:55.885Z,98939.63
2023-04-17T04:12:23.321Z,98931.91
2023-04-17T04:14:50.300Z,98938.91
2023-04-17T04:17:17.558Z,98939.81
2023-04-17T04:19:44.700Z,98941.72
2023-04-17T04:22:13.673Z,98939.22
2023-04-17T04:24:53.688Z,98939.09
2023-04-17T04:27:27.564Z,98948.72
2023-04-17T04:29:58.682Z,98938.91
2023-04-17T04:32:27.715Z,98939.09
2023-04-17T04:34:58.563Z,98947.19
2023-04-17T04:37:30.011Z,98944.28
2023-04-17T04:40:10.507Z,98944.50
2023-04-17T04:42:41.994Z,98942.69
2023-04-17T04:45:18.739Z,98950.66
2023-04-17T04:47:46.040Z,98952.41
2023-04-17T04:50:12.872Z,98941.66
2023-04-17T04:52:39.628Z,98948.56
2023-04-17T04:55:15.172Z,98949.50
2023-04-17T04:57:47.054Z,98958.22
2023-04-17T05:00:14.571Z,98961.84
2023-04-17T05:02:46.597Z,98957.31
2023-04-17T05:05:14.505Z,98956.59
2023-04-17T05:07:41.787Z,98961.19
2023-04-17T05:10:12.122Z,98957.47
2023-04-17T05:12:44.428Z,98955.72
2023-04-17T05:15:13.074Z,98960.88
2023-04-17T05:17:39.860Z,98958.38
2023-04-17T05:20:08.326Z,98966.16
2023-04-17T05:22:39.737Z,98957.50
2023-04-17T05:25:10.184Z,98960.84
2023-04-17T05:27:37.655Z,98970.06
2023-04-17T05:30:05.839Z,98967.50
2023-04-17T05:32:34.972Z,98963.88
2023-04-17T05:35:13.385Z,98969.06
2023-04-17T05:37:41.142Z,98965.38
2023-04-17T05:40:08.686Z,98968.00
2023-04-17T05:42:35.406Z,98969.81
2023-04-17T05:45:03.563Z,98961.75
2023-04-17T05:47:30.555Z,98967.91
2023-04-17T05:49:58.004Z,98964.31
2023-04-17T05:52:27.631Z,98966.16
2023-04-17T05:54:54.378Z,98971.25
2023-04-17T05:57:21.301Z,98972.28
2023-04-17T05:59:49.264Z,98969.72
2023-04-17T06:02:16.731Z,98975.97
2023-04-17T06:04:44.373Z,98979.41
2023-04-17T06:07:11.995Z,98972.28
2023-04-17T06:09:38.798Z,98975.00
2023-04-17T06:12:05.692Z,98973.09
2023-04-17T06:14:33.173Z,98980.81
2023-04-17T06:17:01.960Z,98984.13
2023-04-17T06:19:28.709Z,98980.44
2023-04-17T06:21:55.571Z,98975.75
2023-04-17T06:24:22.314Z,98980.19
2023-04-17T06:26:49.003Z,98981.00
2023-04-17T06:29:16.182Z,98980.00
2023-04-17T06:31:44.189Z,98973.84
2023-04-17T06:34:11.245Z,98976.31
2023-04-17T06:36:41.904Z,98971.16
2023-04-17T06:39:08.677Z,98968.06
2023-04-17T06:41:35.679Z,98967.81
2023-04-17T06:44:02.455Z,98968.44
2023-04-17T06:46:44.419Z,98974.78
2023-04-17T06:49:12.080Z,98972.47
2023-04-17T06:51:39.119Z,98972.41
2023-04-17T06:54:05.963Z,98970.97
2023-04-17T06:56:32.751Z,98972.84
2023-04-17T06:59:00.763Z,98982.13
2023-04-17T07:01:29.340Z,98979.16
2023-04-17T07:03:56.271Z,98981.31
2023-04-17T07:06:24.354Z,98989.75
2023-04-17T07:08:52.141Z,98988.97
2023-04-17T07:11:20.468Z,98991.94
2023-04-17T07:13:47.154Z,98989.78
2023-04-17T07:16:13.869Z,98989.38
2023-04-17T07:18:40.610Z,98993.03
2023-04-17T07:21:07.277Z,98996.78
2023-04-17T07:23:33.929Z,99001.06
2023-04-17T07:26:00.763Z,99000.91
2023-04-17T07:28:27.606Z,99001.78
2023-04-17T07:30:55.088Z,99001.13
2023-04-17T07:33:21.845Z,99007.38
2023-04-17T07:35:48.604Z,99005.53
2023-04-17T07:38:15.441Z,99011.53
2023-04-17T07:40:42.157Z,99013.72
2023-04-17T07:43:08.814Z,99005.44
2023-04-17T07:45:38.521Z,99010.50
2023-04-17T07:48:06.573Z,99003.03
2023-04-17T07:50:33.388Z,99001.59
2023-04-17T07:53:00.117Z,99003.28
2023-04-17T07:55:26.824Z,99002.41
2023-04-17T07:57:54.320Z,99001.78
2023-04-17T08:00:21.627Z,98999.13
2023-04-17T08:02:48.616Z,99000.34
2023-04-17T08:05:15.600Z,98997.97
2023-04-17T08:07:43.388Z,98999.50
2023-04-17T08:10:10.548Z,99009.28
2023-04-17T08:12:37.378Z,99003.88
2023-04-17T08:15:04.420Z,99009.97
2023-04-17T08:17:31.166Z,99011.16
2023-04-17T08:19:57.929Z,98997.81
2023-04-17T08:22:25.956Z,98987.06
2023-04-17T08:24:57.788Z,98988.09
2023-04-17T08:27:25.559Z,98986.06
2023-04-17T08:29:55.074Z,98987.09
2023-04-17T08:32:22.025Z,98977.53
2023-04-17T08:34:48.815Z,98973.41
2023-04-17T08:37:15.671Z,98974.59
2023-04-17T08:39:42.465Z,98970.38
2023-04-17T08:42:15.831Z,98984.47
2023-04-17T08:44:45.590Z,98990.81
2023-04-17T08:47:13.385Z,98998.41
2023-04-17T08:49:43.501Z,99003.03
2023-04-17T08:52:11.289Z,98995.88
2023-04-17T08:54:39.037Z,99009.47
2023-04-17T08:57:06.196Z,99014.19
2023-04-17T08:59:33.075Z,99015.44
2023-04-17T09:02:10.372Z,99022.19
2023-04-17T09:04:40.264Z,99024.94
2023-04-17T09:07:09.492Z,99018.66
2023-04-17T09:09:56.265Z,99028.38
2023-04-17T09:12:25.106Z,99024.72
2023-04-17T09:14:52.318Z,99033.47
2023-04-17T09:17:20.948Z,99032.59
2023-04-17T09:20:08.807Z,99037.28
2023-04-17T09:22:37.131Z,99033.78
2023-04-17T09:25:05.228Z,99039.72
2023-04-17T09:27:32.437Z,99042.69
2023-04-17T09:30:04.463Z,99038.53
2023-04-17T09:32:33.893Z,99047.34
2023-04-17T09:35:03.528Z,99039.63
2023-04-17T09:37:50.122Z,99047.66
2023-04-17T09:40:18.999Z,99046.28
2023-04-17T09:43:03.826Z,99044.41
2023-04-17T09:45:36.168Z,99042.72
2023-04-17T09:48:13.318Z,99040.72
2023-04-17T09:50:40.841Z,99046.63
2023-04-17T09:53:08.712Z,99050.50
2023-04-17T09:55:37.948Z,99058.03
2023-04-17T09:58:07.624Z,99052.47
2023-04-17T10:00:36.638Z,99043.78
2023-04-17T10:03:03.904Z,99037.28
2023-04-17T10:05:32.296Z,99043.03
2023-04-17T10:07:59.227Z,99038.50
2023-04-17T10:10:33.832Z,99027.09
2023-04-17T10:13:03.333Z,99034.72
2023-04-17T10:15:31.045Z,99037.75
2023-04-17T10:18:24.031Z,99042.28
2023-04-17T10:20:53.655Z,99033.88
2023-04-17T10:23:29.744Z,99029.78
2023-04-17T10:26:25.261Z,99027.47
2023-04-17T10:28:53.438Z,99030.00
2023-04-17T10:31:21.255Z,99023.00
2023-04-17T10:33:52.655Z,99021.50
2023-04-17T10:36:39.672Z,99017.84
2023-04-17T10:39:18.256Z,99014.03
2023-04-17T10:42:05.707Z,99017.66
2023-04-17T10:44:39.498Z,99021.38
2023-04-17T10:47:07.635Z,99021.63
2023-04-17T10:50:10.078Z,99030.03
2023-04-17T10:52:38.812Z,99034.00
2023-04-17T10:55:18.447Z,99037.00
2023-04-17T10:58:15.333Z,99036.81
2023-04-17T11:00:52.486Z,99031.41
2023-04-17T11:03:23.101Z,99024.53
2023-04-17T11:05:50.144Z,99029.06
2023-04-17T11:08:17.039Z,99027.44
2023-04-17T11:10:43.987Z,99028.50
2023-04-17T11:13:10.812Z,99024.91
2023-04-17T11:15:37.535Z,99013.66
2023-04-17T11:18:04.405Z,99014.97
2023-04-17T11:20:33.330Z,98997.31
2023-04-17T11:23:04.663Z,98995.44
2023-04-17T11:25:34.199Z,98977.13
2023-04-17T11:28:03.853Z,98980.81
2023-04-17T11:30:35.779Z,98974.84
2023-04-17T11:33:05.092Z,98975.69
2023-04-17T11:35:36.717Z,98984.69
2023-04-17T11:38:17.568Z,98984.78
2023-04-17T11:40:55.418Z,98974.94
2023-04-17T11:43:23.603Z,98969.19
2023-04-17T11:45:52.530Z,98965.38
2023-04-17T11:48:24.527Z,98946.84
2023-04-17T11:51:02.860Z,98944.75
2023-04-17T11:53:30.699Z,98927.16
2023-04-17T11:56:14.258Z,98930.34
2023-04-17T11:58:55.573Z,98923.94
2023-04-17T12:01:25.304Z,98919.75
2023-04-17T12:03:54.120Z,98911.16
2023-04-17T12:06:21.535Z,98917.00
2023-04-17T12:08:53.406Z,98922.84
2023-04-17T12:11:25.806Z,98928.31
2023-04-17T12:13:53.426Z,98940.91
2023-04-17T12:16:20.391Z,98947.66
2023-04-17T12:18:47.346Z,98960.81
2023-04-17T12:21:14.513Z,98957.53
2023-04-17T12:23:41.541Z,98963.34
2023-04-17T12:26:09.159Z,98963.81
2023-04-17T12:28:36.398Z,98965.06
2023-04-17T12:31:04.585Z,98973.94
2023-04-17T12:33:32.198Z,98972.38
2023-04-17T12:36:01.130Z,98975.06
2023-04-17T12:38:28.133Z,98974.75
2023-04-17T12:40:54.866Z,98980.59
2023-04-17T12:43:21.691Z,98977.75
2023-04-17T12:45:48.707Z,98983.72
2023-04-17T12:48:15.722Z,98994.81
2023-04-17T12:50:43.722Z,98990.59
2023-04-17T12:53:13.273Z,98984.72
2023-04-17T12:55:41.211Z,98987.19
2023-04-17T12:58:10.053Z,98994.22
2023-04-17T13:00:38.090Z,98994.56
2023-04-17T13:03:06.022Z,98997.91
2023-04-17T13:05:33.065Z,99004.28
2023-04-17T13:07:59.890Z,99003.13
2023-04-17T13:10:26.790Z,99007.59
2023-04-17T13:12:53.584Z,99009.28
2023-04-17T13:15:20.422Z,99014.38
2023-04-17T13:17:47.297Z,99020.91
2023-04-17T13:20:14.337Z,99026.25
2023-04-17T13:22:41.377Z,99021.28
2023-04-17T13:25:08.703Z,99018.97
2023-04-17T13:27:35.422Z,99026.75
2023-04-17T13:30:02.138Z,99026.03
2023-04-17T13:32:28.897Z,99019.66
2023-04-17T13:34:56.770Z,99009.19
2023-04-17T13:37:25.813Z,99014.28
2023-04-17T13:39:52.730Z,99010.97
2023-04-17T13:42:20.398Z,99007.78
2023-04-17T13:44:47.142Z,98994.97
2023-04-17T13:47:14.029Z,98992.44
2023-04-17T13:49:40.799Z,98971.50
2023-04-17T13:52:07.834Z,98967.84
2023-04-17T13:54:34.596Z,98968.25
2023-04-17T13:57:01.622Z,98968.59
2023-04-17T13:59:28.444Z,98970.59
2023-04-17T14:01:55.421Z,98962.72
2023-04-17T14:04:22.342Z,98967.72
2023-04-17T14:06:50.941Z,98956.63
2023-04-17T14:09:18.054Z,98951.31
2023-04-17T14:11:44.917Z,98954.94
2023-04-17T14:14:12.806Z,98943.63
2023-04-17T14:16:43.539Z,98939.72
2023-04-17T14:19:14.163Z,98950.56
2023-04-17T14:21:41.627Z,98958.78
2023-04-17T14:24:08.961Z,98951.97
2023-04-17T14:26:37.346Z,98957.00
2023-04-17T14:29:04.372Z,98968.13
2023-04-17T14:31:31.621Z,98966.06
2023-04-17T14:33:58.453Z,98969.84
2023-04-17T14:36:26.336Z,98962.75
2023-04-17T14:38:54.222Z,98970.88
2023-04-17T14:41:21.094Z,98975.28
2023-04-17T14:43:48.004Z,98969.38
2023-04-17T14:46:14.908Z,98974.41
2023-04-17T14:51:15.253Z,98958.19
2023-04-17T14:53:42.243Z,98959.00
2023-04-17T14:56:09.464Z,98961.94
2023-04-17T14:58:36.321Z,98962.63
2023-04-17T15:01:03.573Z,98961.50
2023-04-17T15:03:32.222Z,98957.94
2023-04-17T15:05:59.377Z,98962.97
2023-04-17T15:08:26.254Z,98958.84
2023-04-17T15:10:52.988Z,98955.88
2023-04-17T15:13:19.794Z,98954.84
2023-04-17T15:15:46.542Z,98960.03
2023-04-17T15:18:13.214Z,98957.25
2023-04-17T15:20:40.710Z,98960.06
2023-04-17T15:23:07.540Z,98958.47
2023-04-17T15:25:34.654Z,98944.16
2023-04-17T15:28:01.530Z,98940.28
2023-04-17T15:30:28.234Z,98955.16
2023-04-17T15:32:55.025Z,98945.88
2023-04-17T15:35:22.066Z,98940.75
2023-04-17T15:37:48.832Z,98932.38
2023-04-17T15:40:16.288Z,98939.22
2023-04-17T15:42:43.646Z,98942.41
2023-04-17T15:45:10.719Z,98934.09
2023-04-17T15:47:37.504Z,98941.50
2023-04-17T15:50:04.632Z,98931.06
2023-04-17T15:52:31.352Z,98946.75
2023-04-17T15:54:58.006Z,98942.34
2023-04-17T15:57:24.749Z,98937.50
2023-04-17T15:59:51.556Z,98956.47
2023-04-17T16:02:18.386Z,98948.56
2023-04-17T16:04:45.267Z,98950.63
2023-04-17T16:07:12.217Z,98948.56
2023-04-17T16:09:39.815Z,98950.53
2023-04-17T16:12:10.392Z,98945.84
2023-04-17T16:14:37.961Z,98949.50
2023-04-17T16:17:05.322Z,98947.47
2023-04-17T16:19:32.529Z,98936.31
2023-04-17T16:21:59.603Z,98938.25
2023-04-17T16:24:26.378Z,98942.56
2023-04-17T16:26:57.503Z,98942.91
2023-04-17T16:29:25.156Z,98943.56
2023-04-17T16:31:53.297Z,98942.00
2023-04-17T16:34:20.803Z,98939.06
2023-04-17T16:36:48.262Z,98950.03
2023-04-17T16:39:15.349Z,98952.06
2023-04-17T16:41:42.355Z,98946.31
2023-04-17T16:44:09.043Z,98949.78
2023-04-17T16:46:52.235Z,98947.16
2023-04-17T16:49:22.613Z,98960.97
2023-04-17T16:51:49.396Z,98948.97
2023-04-17T16:54:16.275Z,98963.41
2023-04-17T16:56:43.053Z,98955.50
2023-04-17T16:59:09.772Z,98956.31
2023-04-17T17:01:36.487Z,98955.25
2023-04-17T17:04:03.354Z,98960.00
2023-04-17T17:06:30.211Z,98956.38
2023-04-17T17:08:57.360Z,98962.13
2023-04-17T17:11:24.076Z,98967.88
2023-04-17T17:13:51.692Z,98963.03
2023-04-17T17:16:21.001Z,98968.34
2023-04-17T17:18:48.354Z,98962.06
2023-04-17T17:21:15.357Z,98958.53
2023-04-17T17:23:42.051Z,98953.75
2023-04-17T17:26:08.802Z,98960.56
2023-04-17T17:28:35.653Z,98960.72
2023-04-17T17:31:04.209Z,98952.69
2023-04-17T17:33:32.207Z,98955.13
2023-04-17T17:35:59.763Z,98955.25
2023-04-17T17:38:32.588Z,98955.50
2023-04-17T17:40:59.622Z,98957.09
2023-04-17T17:43:29.225Z,98960.44
2023-04-17T17:45:56.068Z,98956.81
2023-04-17T17:48:22.798Z,98955.22
2023-04-17T17:50:53.953Z,98964.25
2023-04-17T17:53:26.055Z,98958.00
2023-04-17T17:55:55.469Z,98959.22
2023-04-17T17:58:22.975Z,98957.22
2023-04-17T18:00:50.435Z,98961.97
2023-04-17T18:03:17.990Z,98970.91
2023-04-17T18:05:46.434Z,98963.06
2023-04-17T18:08:14.395Z,98969.66
2023-04-17T18:10:41.159Z,98963.72
2023-04-17T18:13:08.312Z,98969.03
2023-04-17T18:15:36.332Z,98975.97
2023-04-17T18:18:03.474Z,98968.97
2023-04-17T18:20:30.253Z,98974.19
2023-04-17T18:22:57.579Z,98972.50
2023-04-17T18:25:24.422Z,98968.78
2023-04-17T18:27:51.220Z,98974.09
2023-04-17T18:30:17.994Z,98974.09
2023-04-17T18:32:44.739Z,98974.25
2023-04-17T18:35:11.657Z,98970.91
2023-04-17T18:37:39.593Z,98981.53
2023-04-17T18:40:07.875Z,98976.22
2023-04-17T18:42:34.614Z,98980.66
2023-04-17T18:45:01.407Z,98982.44
2023-04-17T18:47:28.517Z,98982.22
2023-04-17T18:49:55.304Z,98976.94
2023-04-17T18:52:22.102Z,98982.06
2023-04-17T18:54:48.923Z,98979.41
2023-04-17T18:57:15.747Z,98991.16
2023-04-17T18:59:43.341Z,98989.31
2023-04-17T19:02:10.314Z,98987.56
2023-04-17T19:04:37.086Z,98984.03
2023-04-17T19:07:03.788Z,98994.63
2023-04-17T19:09:30.623Z,98992.88
2023-04-17T19:11:58.502Z,98990.38
2023-04-17T19:14:25.319Z,98988.53
2023-04-17T19:16:53.267Z,98989.41
2023-04-17T19:19:20.299Z,98989.41
2023-04-17T19:21:46.966Z,98990.41
2023-04-17T19:24:13.754Z,98990.44
2023-04-17T19:26:41.225Z,98985.97
2023-04-17T19:29:08.018Z,98994.00
2023-04-17T19:31:34.890Z,98990.38
2023-04-17T19:34:01.700Z,98990.56
2023-04-17T19:36:28.563Z,98988.69
2023-04-17T19:38:56.385Z,98985.97
2023-04-17T19:41:23.120Z,98992.16
2023-04-17T19:43:51.362Z,98990.56
2023-04-17T19:46:19.544Z,98990.78
2023-04-17T19:48:47.263Z,98990.72
2023-04-17T19:51:15.081Z,98992.56
2023-04-17T19:53:43.354Z,98988.22
2023-04-17T19:56:10.698Z,98989.09
2023-04-17T19:58:38.439Z,98977.56
2023-04-17T20:01:11.073Z,98981.16
2023-04-17T20:03:39.283Z,98985.88
2023-04-17T20:06:06.532Z,98978.84
2023-04-17T20:08:33.417Z,98979.69
2023-04-17T20:11:00.815Z,98982.25
2023-04-17T20:13:30.444Z,98974.31
2023-04-17T20:15:57.221Z,98981.47
2023-04-17T20:18:24.926Z,98974.47
2023-04-17T20:20:51.746Z,98980.56
2023-04-17T20:23:18.492Z,98967.38
2023-04-17T20:25:45.172Z,98979.63
2023-04-17T20:28:12.009Z,98973.38
2023-04-17T20:30:39.095Z,98975.34
2023-04-17T20:33:05.880Z,98975.28
2023-04-17T20:35:32.630Z,98983.22
2023-04-17T20:37:59.693Z,98978.97
2023-04-17T20:40:26.515Z,98980.94
2023-04-17T20:42:53.301Z,98980.16
2023-04-17T20:45:20.271Z,98979.34
2023-04-17T20:47:56.476Z,98975.06
2023-04-17T20:50:24.803Z,98969.72
2023-04-17T20:52:51.659Z,98970.50
2023-04-17T20:55:19.977Z,98964.47
2023-04-17T20:57:47.738Z,98955.63
2023-04-17T21:00:14.869Z,98963.59
2023-04-17T21:02:42.075Z,98965.28
2023-04-17T21:05:12.331Z,98958.28
2023-04-17T21:07:39.094Z,98947.91
2023-04-17T21:10:06.552Z,98957.84
2023-04-17T21:12:35.064Z,98960.63
2023-04-17T21:15:02.124Z,98960.75
2023-04-17T21:17:28.948Z,98959.09
2023-04-17T21:19:56.259Z,98956.44
2023-04-17T21:22:23.153Z,98960.88
2023-04-17T21:24:49.821Z,98960.94
2023-04-17T21:27:16.723Z,98958.38
2023-04-17T21:29:46.119Z,98960.19
2023-04-17T21:32:12.859Z,98957.63
2023-04-17T21:34:39.819Z,98956.81
2023-04-17T21:37:06.525Z,98963.72
2023-04-17T21:39:33.467Z,98966.41
2023-04-17T21:42:00.750Z,98952.28
2023-04-17T21:44:28.085Z,98957.50
2023-04-17T21:46:54.788Z,98961.03
2023-04-17T21:49:22.510Z,98958.50
2023-04-17T21:51:49.206Z,98953.44
2023-04-17T21:54:16.111Z,98960.69
2023-04-17T21:56:42.836Z,98957.97
2023-04-17T21:59:09.636Z,98949.88
2023-04-17T22:01:36.420Z,98957.03
2023-04-17T22:04:03.315Z,98951.72
2023-04-17T22:06:30.234Z,98949.13
2023-04-17T22:08:56.934Z,98947.16
2023-04-17T22:11:23.594Z,98949.97
2023-04-17T22:13:50.447Z,98953.53
2023-04-17T22:16:17.327Z,98945.69
2023-04-17T22:18:44.128Z,98947.44
2023-04-17T22:21:13.217Z,98951.03
2023-04-17T22:23:40.090Z,98949.28
2023-04-17T22:26:06.849Z,98952.88
2023-04-17T22:28:33.583Z,98952.88
2023-04-17T22:31:00.349Z,98948.47
2023-04-17T22:33:27.237Z,98951.97
2023-04-17T22:35:53.987Z,98950.16
2023-04-17T22:38:23.551Z,98950.22
2023-04-17T22:40:50.284Z,98949.31
2023-04-17T22:43:17.051Z,98961.69
2023-04-17T22:45:43.796Z,98955.47
2023-04-17T22:48:10.513Z,98956.44
2023-04-17T22:50:37.929Z,98956.63
2023-04-17T22:53:04.897Z,98958.38
2023-04-17T22:55:31.664Z,98960.41
2023-04-17T22:58:00.321Z,98964.75
2023-04-17T23:00:27.069Z,98962.94
2023-04-17T23:02:53.874Z,98962.06
2023-04-17T23:05:20.832Z,98958.63
2023-04-17T23:07:49.171Z,98960.41
2023-04-17T23:10:15.978Z,98959.47
2023-04-17T23:12:42.943Z,98954.09
2023-04-17T23:15:10.098Z,98964.72
2023-04-17T23:17:36.857Z,98953.47
2023-04-17T23:20:04.111Z,98955.94
2023-04-17T23:22:30.991Z,98956.94
2023-04-17T23:24:57.838Z,98950.66
2023-04-17T23:27:24.580Z,98946.28
2023-04-17T23:29:51.266Z,98951.69
2023-04-17T23:32:18.061Z,98949.09
2023-04-17T23:34:44.849Z,98949.19
2023-04-17T23:37:11.888Z,98952.69
2023-04-17T23:39:38.654Z,98953.66
2023-04-17T23:42:07.785Z,98946.66
2023-04-17T23:44:34.716Z,98948.47
2023-04-17T23:47:03.179Z,98946.81
2023-04-17T23:49:29.997Z,98946.81
2023-04-17T23:51:56.763Z,98946.81
2023-04-17T23:54:23.463Z,98946.94
2023-04-17T23:56:50.199Z,98945.16
2023-04-17T23:59:16.893Z,98940.78
